createdAt,value
2017-09-30T00:00:36.666Z,10.76
2017-09-30T00:01:46.933Z,10.69
2017-09-30T00:02:58.664Z,10.75
2017-09-30T00:04:08.934Z,10.72
2017-09-30T00:05:18.882Z,10.72
2017-09-30T00:06:29.157Z,10.72
2017-09-30T00:07:39.106Z,10.72
2017-09-30T00:08:49.381Z,10.65
2017-09-30T00:09:59.331Z,10.68
2017-09-30T00:11:09.281Z,10.77
2017-09-30T00:12:19.554Z,10.67
2017-09-30T00:13:29.827Z,10.69
2017-09-30T00:14:40.098Z,10.8
2017-09-30T00:15:50.372Z,10.75
2017-09-30T00:17:00.640Z,10.79
2017-09-30T00:18:10.591Z,10.75
2017-09-30T00:19:20.864Z,10.77
2017-09-30T00:20:31.135Z,10.72
2017-09-30T00:21:41.083Z,10.75
2017-09-30T00:22:51.049Z,10.72
2017-09-30T00:24:01.322Z,10.75
2017-09-30T00:25:10.954Z,10.69
2017-09-30T00:26:20.908Z,10.71
2017-09-30T00:27:30.857Z,10.75
2017-09-30T00:28:41.130Z,10.79
2017-09-30T00:29:51.408Z,10.76
2017-09-30T00:31:01.353Z,10.79
2017-09-30T00:32:11.300Z,10.77
2017-09-30T00:33:21.581Z,10.68
2017-09-30T00:34:31.855Z,10.79
2017-09-30T00:35:42.130Z,10.75
2017-09-30T00:36:52.078Z,10.75
2017-09-30T00:38:02.349Z,10.75
2017-09-30T00:39:12.302Z,10.77
2017-09-30T00:40:22.586Z,10.72
2017-09-30T00:41:32.539Z,10.68
2017-09-30T00:42:42.483Z,10.86
2017-09-30T00:43:52.761Z,10.83
2017-09-30T00:45:02.719Z,10.75
2017-09-30T00:46:12.685Z,10.69
2017-09-30T00:47:22.956Z,10.79
2017-09-30T00:48:33.224Z,10.65
2017-09-30T00:49:43.496Z,10.77
2017-09-30T00:50:53.781Z,10.8
2017-09-30T00:52:04.063Z,10.75
2017-09-30T00:53:13.695Z,10.76
2017-09-30T00:54:23.649Z,10.79
2017-09-30T00:55:33.916Z,10.75
2017-09-30T00:56:44.187Z,10.71
2017-09-30T00:57:54.133Z,10.69
2017-09-30T00:59:04.086Z,10.71
2017-09-30T01:00:14.361Z,10.72
2017-09-30T01:01:24.308Z,10.83
2017-09-30T01:02:34.262Z,10.83
2017-09-30T01:03:44.206Z,10.83
2017-09-30T01:04:54.484Z,10.72
2017-09-30T01:06:04.760Z,10.84
2017-09-30T01:07:15.053Z,10.86
2017-09-30T01:08:25.347Z,10.87
2017-09-30T01:09:35.298Z,10.79
2017-09-30T01:10:45.572Z,10.8
2017-09-30T01:11:55.522Z,10.84
2017-09-30T01:13:05.475Z,10.79
2017-09-30T01:14:15.748Z,10.84
2017-09-30T01:15:25.711Z,10.72
2017-09-30T01:16:35.986Z,10.86
2017-09-30T01:17:46.257Z,10.87
2017-09-30T01:18:56.526Z,10.83
2017-09-30T01:20:06.476Z,10.87
2017-09-30T01:21:16.747Z,10.86
2017-09-30T01:22:26.699Z,10.87
2017-09-30T01:23:36.326Z,10.9
2017-09-30T01:24:46.595Z,10.86
2017-09-30T01:25:56.864Z,10.92
2017-09-30T01:27:07.135Z,10.84
2017-09-30T01:28:17.408Z,10.87
2017-09-30T01:29:27.683Z,10.79
2017-09-30T01:30:37.955Z,10.82
2017-09-30T01:31:48.222Z,10.89
2017-09-30T01:32:58.491Z,10.84
2017-09-30T01:34:08.770Z,10.84
2017-09-30T01:35:18.717Z,10.83
2017-09-30T01:36:28.710Z,10.8
2017-09-30T01:37:38.981Z,10.94
2017-09-30T01:38:48.932Z,10.92
2017-09-30T01:39:59.206Z,10.9
2017-09-30T01:41:09.479Z,10.87
2017-09-30T01:42:19.103Z,10.84
2017-09-30T01:43:29.051Z,10.89
2017-09-30T01:44:39.334Z,10.89
2017-09-30T01:45:49.287Z,10.94
2017-09-30T01:46:59.597Z,10.86
2017-09-30T01:48:09.544Z,10.84
2017-09-30T01:49:19.814Z,10.89
2017-09-30T01:50:29.463Z,10.84
2017-09-30T01:51:39.763Z,10.84
2017-09-30T01:52:50.038Z,10.86
2017-09-30T01:54:00.313Z,10.86
2017-09-30T01:55:10.585Z,10.83
2017-09-30T01:56:20.866Z,10.86
2017-09-30T01:57:30.493Z,10.89
2017-09-30T01:58:40.446Z,10.84
2017-09-30T01:59:50.076Z,10.84
2017-09-30T02:01:00.343Z,10.9
2017-09-30T02:02:10.622Z,10.84
2017-09-30T02:03:20.576Z,10.84
2017-09-30T02:04:30.852Z,10.87
2017-09-30T02:05:41.121Z,10.87
2017-09-30T02:06:51.400Z,10.83
2017-09-30T02:08:01.673Z,10.84
2017-09-30T02:09:11.948Z,10.8
2017-09-30T02:10:21.894Z,10.9
2017-09-30T02:11:31.519Z,10.87
2017-09-30T02:12:41.154Z,10.86
2017-09-30T02:13:51.164Z,10.86
2017-09-30T02:15:01.444Z,10.87
2017-09-30T02:16:11.397Z,10.84
2017-09-30T02:17:21.350Z,10.84
2017-09-30T02:18:31.733Z,10.87
2017-09-30T02:19:42.009Z,10.9
2017-09-30T02:20:52.289Z,10.95
2017-09-30T02:22:02.560Z,10.89
2017-09-30T02:23:12.828Z,10.86
2017-09-30T02:24:22.777Z,10.92
2017-09-30T02:25:33.051Z,10.95
2017-09-30T02:26:42.677Z,10.86
2017-09-30T02:27:52.965Z,10.86
2017-09-30T02:29:03.256Z,10.84
2017-09-30T02:30:12.890Z,10.89
2017-09-30T02:31:23.162Z,10.89
2017-09-30T02:32:33.437Z,10.87
2017-09-30T02:33:43.704Z,10.83
2017-09-30T02:34:53.328Z,10.86
2017-09-30T02:36:03.277Z,10.87
2017-09-30T02:37:12.917Z,10.83
2017-09-30T02:38:22.869Z,10.83
2017-09-30T02:39:33.145Z,10.87
2017-09-30T02:40:43.431Z,10.83
2017-09-30T02:41:53.704Z,10.82
2017-09-30T02:43:03.668Z,10.92
2017-09-30T02:44:13.944Z,10.83
2017-09-30T02:45:23.909Z,10.89
2017-09-30T02:46:34.179Z,10.9
2017-09-30T02:47:44.453Z,10.92
2017-09-30T02:48:54.725Z,10.87
2017-09-30T02:50:05.003Z,10.87
2017-09-30T02:51:14.954Z,10.92
2017-09-30T02:52:25.237Z,10.86
2017-09-30T02:53:35.511Z,10.89
2017-09-30T02:54:45.784Z,10.89
2017-09-30T02:55:56.062Z,10.83
2017-09-30T02:57:06.334Z,10.87
2017-09-30T02:58:16.606Z,10.77
2017-09-30T02:59:26.875Z,10.95
2017-09-30T03:00:36.824Z,10.87
2017-09-30T03:01:47.101Z,10.8
2017-09-30T03:02:57.054Z,10.83
2017-09-30T03:04:07.331Z,10.82
2017-09-30T03:05:17.608Z,10.87
2017-09-30T03:06:27.886Z,10.86
2017-09-30T03:07:38.169Z,10.97
2017-09-30T03:08:48.123Z,10.86
2017-09-30T03:09:58.069Z,10.86
2017-09-30T03:11:08.342Z,10.86
2017-09-30T03:12:18.614Z,10.8
2017-09-30T03:13:28.885Z,10.8
2017-09-30T03:14:38.833Z,10.83
2017-09-30T03:15:48.780Z,10.84
2017-09-30T03:16:59.057Z,10.86
2017-09-30T03:18:09.006Z,10.82
2017-09-30T03:19:19.282Z,10.82
2017-09-30T03:20:29.235Z,10.77
2017-09-30T03:21:39.509Z,10.82
2017-09-30T03:22:49.456Z,10.72
2017-09-30T03:23:59.406Z,10.77
2017-09-30T03:25:09.696Z,10.77
2017-09-30T03:26:19.972Z,10.77
2017-09-30T03:27:30.246Z,10.67
2017-09-30T03:28:40.204Z,10.69
2017-09-30T03:29:50.153Z,10.71
2017-09-30T03:31:00.436Z,10.68
2017-09-30T03:32:10.384Z,10.71
2017-09-30T03:33:20.338Z,10.72
2017-09-30T03:34:30.606Z,10.69
2017-09-30T03:35:40.888Z,10.82
2017-09-30T03:36:50.524Z,10.69
2017-09-30T03:38:00.791Z,10.79
2017-09-30T03:39:10.740Z,10.67
2017-09-30T03:40:20.697Z,10.76
2017-09-30T03:41:30.643Z,10.71
2017-09-30T03:42:40.590Z,10.72
2017-09-30T03:43:50.538Z,10.68
2017-09-30T03:45:00.823Z,10.77
2017-09-30T03:46:10.774Z,10.77
2017-09-30T03:47:20.732Z,10.67
2017-09-30T03:48:31.008Z,10.76
2017-09-30T03:49:41.279Z,10.79
2017-09-30T03:50:51.550Z,10.8
2017-09-30T03:52:01.825Z,10.76
2017-09-30T03:53:11.771Z,10.79
2017-09-30T03:54:21.718Z,10.72
2017-09-30T03:55:31.987Z,10.82
2017-09-30T03:56:42.256Z,10.76
2017-09-30T03:57:52.542Z,10.82
2017-09-30T03:59:02.503Z,10.71
2017-09-30T04:00:12.446Z,10.69
2017-09-30T04:01:22.713Z,10.71
2017-09-30T04:02:32.990Z,10.67
2017-09-30T04:03:43.262Z,10.8
2017-09-30T04:04:53.211Z,10.68
2017-09-30T04:06:03.482Z,10.71
2017-09-30T04:07:13.106Z,10.69
2017-09-30T04:08:23.049Z,10.82
2017-09-30T04:09:33.320Z,10.75
2017-09-30T04:10:43.593Z,10.77
2017-09-30T04:11:53.219Z,10.71
2017-09-30T04:13:03.500Z,10.86
2017-09-30T04:14:13.449Z,10.83
2017-09-30T04:15:23.730Z,10.71
2017-09-30T04:16:33.363Z,10.71
2017-09-30T04:17:43.642Z,10.83
2017-09-30T04:18:53.913Z,10.83
2017-09-30T04:20:03.219Z,10.84
2017-09-30T04:21:12.842Z,10.79
2017-09-30T04:22:23.113Z,10.77
2017-09-30T04:23:33.067Z,10.69
2017-09-30T04:24:43.339Z,10.75
2017-09-30T04:25:53.286Z,10.69
2017-09-30T04:27:03.562Z,10.72
2017-09-30T04:28:13.518Z,10.69
2017-09-30T04:29:23.786Z,10.76
2017-09-30T04:30:33.737Z,10.75
2017-09-30T04:31:44.011Z,10.76
2017-09-30T04:32:53.958Z,10.79
2017-09-30T04:34:03.583Z,10.8
2017-09-30T04:35:13.528Z,10.77
2017-09-30T04:36:23.795Z,10.69
2017-09-30T04:37:33.741Z,10.76
2017-09-30T04:38:43.373Z,10.83
2017-09-30T04:39:53.337Z,10.77
2017-09-30T04:41:03.606Z,10.79
2017-09-30T04:42:13.246Z,10.67
2017-09-30T04:43:23.516Z,10.72
2017-09-30T04:44:33.466Z,10.69
2017-09-30T04:45:43.738Z,10.69
2017-09-30T04:46:53.688Z,10.75
2017-09-30T04:48:03.317Z,10.67
2017-09-30T04:49:12.947Z,10.67
2017-09-30T04:50:22.900Z,10.75
2017-09-30T04:51:32.848Z,10.76
2017-09-30T04:52:42.473Z,10.68
2017-09-30T04:53:52.429Z,10.72
2017-09-30T04:55:02.698Z,10.69
2017-09-30T04:56:12.973Z,10.72
2017-09-30T04:57:23.244Z,10.69
2017-09-30T04:58:33.196Z,10.71
2017-09-30T04:59:43.155Z,10.76
2017-09-30T05:00:53.420Z,10.72
2017-09-30T05:02:03.372Z,10.75
2017-09-30T05:03:13.650Z,10.76
2017-09-30T05:04:23.928Z,10.71
2017-09-30T05:05:33.884Z,10.67
2017-09-30T05:06:44.153Z,10.71
2017-09-30T05:07:54.104Z,10.72
2017-09-30T05:09:04.057Z,10.72
2017-09-30T05:10:14.006Z,10.69
2017-09-30T05:11:23.959Z,10.69
2017-09-30T05:12:33.588Z,10.72
2017-09-30T05:13:43.863Z,10.76
2017-09-30T05:14:54.135Z,10.67
2017-09-30T05:16:04.410Z,10.71
2017-09-30T05:17:14.066Z,10.72
2017-09-30T05:18:24.334Z,10.76
2017-09-30T05:19:34.610Z,10.71
2017-09-30T05:20:44.238Z,10.71
2017-09-30T05:21:53.863Z,10.77
2017-09-30T05:23:04.138Z,10.71
2017-09-30T05:24:14.407Z,10.68
2017-09-30T05:25:24.686Z,10.67
2017-09-30T05:26:34.635Z,10.69
2017-09-30T05:27:44.577Z,10.65
2017-09-30T05:28:53.888Z,10.64
2017-09-30T05:30:04.162Z,10.65
2017-09-30T05:31:13.468Z,10.59
2017-09-30T05:32:22.777Z,10.69
2017-09-30T05:33:33.046Z,10.59
2017-09-30T05:34:43.316Z,10.59
2017-09-30T05:35:53.264Z,10.68
2017-09-30T05:37:02.887Z,10.67
2017-09-30T05:38:12.845Z,10.65
2017-09-30T05:39:22.480Z,10.65
2017-09-30T05:40:32.765Z,10.76
2017-09-30T05:41:42.392Z,10.64
2017-09-30T05:42:52.666Z,10.64
2017-09-30T05:44:02.627Z,10.65
2017-09-30T05:45:12.916Z,10.57
2017-09-30T05:46:23.193Z,10.61
2017-09-30T05:47:33.143Z,10.59
2017-09-30T05:48:43.094Z,10.62
2017-09-30T05:49:53.052Z,10.58
2017-09-30T05:51:03.321Z,10.61
2017-09-30T05:52:13.285Z,10.61
2017-09-30T05:53:23.557Z,10.62
2017-09-30T05:54:33.188Z,10.67
2017-09-30T05:55:43.140Z,10.64
2017-09-30T05:56:53.092Z,10.58
2017-09-30T05:58:03.047Z,10.58
2017-09-30T05:59:13.001Z,10.67
2017-09-30T06:00:22.646Z,10.62
2017-09-30T06:01:32.599Z,10.68
2017-09-30T06:02:42.241Z,10.67
2017-09-30T06:03:52.192Z,10.67
2017-09-30T06:05:01.817Z,10.65
2017-09-30T06:06:11.450Z,10.67
2017-09-30T06:07:21.408Z,10.65
2017-09-30T06:08:31.682Z,10.69
2017-09-30T06:09:41.638Z,10.71
2017-09-30T06:10:51.913Z,10.72
2017-09-30T06:12:01.873Z,10.77
2017-09-30T06:13:12.155Z,10.68
2017-09-30T06:14:22.491Z,10.72
2017-09-30T06:15:31.478Z,10.72
2017-09-30T06:16:41.426Z,10.69
2017-09-30T06:17:51.378Z,10.68
2017-09-30T06:19:00.686Z,10.69
2017-09-30T06:20:10.964Z,10.68
2017-09-30T06:21:21.233Z,10.71
2017-09-30T06:22:31.183Z,10.69
2017-09-30T06:23:40.834Z,10.76
2017-09-30T06:24:51.103Z,10.71
2017-09-30T06:26:01.390Z,10.67
2017-09-30T06:27:10.698Z,10.71
2017-09-30T06:28:20.979Z,10.64
2017-09-30T06:29:30.933Z,10.72
2017-09-30T06:30:41.206Z,10.72
2017-09-30T06:31:51.157Z,10.72
2017-09-30T06:33:01.436Z,10.76
2017-09-30T06:34:11.709Z,10.68
2017-09-30T06:35:21.977Z,10.71
2017-09-30T06:36:31.926Z,10.75
2017-09-30T06:37:42.198Z,10.72
2017-09-30T06:38:52.152Z,10.72
2017-09-30T06:40:02.425Z,10.72
2017-09-30T06:41:12.069Z,10.68
2017-09-30T06:42:22.022Z,10.76
2017-09-30T06:43:31.976Z,10.75
2017-09-30T06:44:42.258Z,10.67
2017-09-30T06:45:52.527Z,10.71
2017-09-30T06:47:02.487Z,10.64
2017-09-30T06:48:12.117Z,10.72
2017-09-30T06:49:22.070Z,10.72
2017-09-30T06:50:32.027Z,10.65
2017-09-30T06:51:41.972Z,10.77
2017-09-30T06:52:52.235Z,10.69
2017-09-30T06:54:02.512Z,10.67
2017-09-30T06:55:12.787Z,10.67
2017-09-30T06:56:22.418Z,10.71
2017-09-30T06:57:31.736Z,10.69
2017-09-30T06:58:41.360Z,10.69
2017-09-30T06:59:51.307Z,10.79
2017-09-30T07:01:01.589Z,10.83
2017-09-30T07:02:11.216Z,10.84
2017-09-30T07:03:21.159Z,10.82
2017-09-30T07:04:31.427Z,10.82
2017-09-30T07:05:41.703Z,10.77
2017-09-30T07:06:51.973Z,10.79
2017-09-30T07:08:02.242Z,10.84
2017-09-30T07:09:11.871Z,10.79
2017-09-30T07:10:21.824Z,10.86
2017-09-30T07:11:32.105Z,10.86
2017-09-30T07:12:42.058Z,10.89
2017-09-30T07:13:52.011Z,10.83
2017-09-30T07:15:01.639Z,10.87
2017-09-30T07:16:11.908Z,10.89
2017-09-30T07:17:21.866Z,10.89
2017-09-30T07:18:32.143Z,11
2017-09-30T07:19:42.419Z,10.94
2017-09-30T07:20:52.696Z,10.97
2017-09-30T07:22:02.648Z,10.98
2017-09-30T07:23:12.604Z,10.86
2017-09-30T07:24:22.235Z,10.98
2017-09-30T07:25:32.186Z,10.97
2017-09-30T07:26:42.136Z,10.95
2017-09-30T07:27:52.092Z,10.86
2017-09-30T07:29:02.367Z,10.86
2017-09-30T07:30:12.638Z,10.92
2017-09-30T07:31:22.593Z,10.97
2017-09-30T07:32:32.542Z,10.98
2017-09-30T07:33:42.501Z,11.01
2017-09-30T07:34:52.452Z,10.98
2017-09-30T07:36:01.437Z,10.98
2017-09-30T07:37:11.391Z,11
2017-09-30T07:38:21.338Z,11.02
2017-09-30T07:39:31.299Z,10.98
2017-09-30T07:40:41.570Z,10.89
2017-09-30T07:41:51.193Z,10.95
2017-09-30T07:43:01.472Z,10.94
2017-09-30T07:44:11.435Z,10.97
2017-09-30T07:45:21.710Z,11.02
2017-09-30T07:46:31.660Z,10.97
2017-09-30T07:47:41.935Z,11.05
2017-09-30T07:48:51.887Z,11.04
2017-09-30T07:50:02.161Z,11.04
2017-09-30T07:51:11.470Z,11.02
2017-09-30T07:52:21.421Z,11.02
2017-09-30T07:53:31.700Z,11.05
2017-09-30T07:54:41.658Z,11.08
2017-09-30T07:55:51.614Z,11.01
2017-09-30T07:57:01.564Z,11.02
2017-09-30T07:58:11.512Z,11.08
2017-09-30T07:59:21.463Z,11.02
2017-09-30T08:00:31.429Z,11
2017-09-30T08:01:41.379Z,11.02
2017-09-30T08:02:51.335Z,11
2017-09-30T08:04:01.292Z,11.07
2017-09-30T08:05:11.247Z,11.02
2017-09-30T08:06:21.202Z,11.02
2017-09-30T08:07:31.475Z,11.01
2017-09-30T08:08:41.427Z,11.15
2017-09-30T08:09:51.382Z,11.04
2017-09-30T08:11:01.655Z,11.04
2017-09-30T08:12:11.600Z,11.07
2017-09-30T08:13:21.552Z,11.05
2017-09-30T08:14:31.822Z,11.07
2017-09-30T08:15:41.449Z,11.05
2017-09-30T08:16:51.103Z,11.04
2017-09-30T08:18:01.373Z,11.1
2017-09-30T08:19:11.323Z,11.07
2017-09-30T08:20:21.593Z,11.05
2017-09-30T08:21:31.550Z,11.08
2017-09-30T08:22:41.512Z,11.16
2017-09-30T08:23:51.468Z,11.12
2017-09-30T08:25:01.739Z,11.15
2017-09-30T08:26:11.371Z,11.1
2017-09-30T08:27:21.646Z,11.13
2017-09-30T08:28:31.946Z,11.13
2017-09-30T08:29:42.215Z,11.15
2017-09-30T08:30:51.844Z,11.23
2017-09-30T08:32:01.789Z,11.16
2017-09-30T08:33:11.743Z,11.26
2017-09-30T08:34:21.702Z,11.2
2017-09-30T08:35:31.652Z,11.22
2017-09-30T08:36:42.232Z,11.26
2017-09-30T08:37:52.186Z,11.19
2017-09-30T08:39:02.474Z,11.18
2017-09-30T08:40:12.441Z,11.27
2017-09-30T08:41:22.047Z,11.31
2017-09-30T08:42:31.674Z,11.26
2017-09-30T08:43:41.628Z,11.38
2017-09-30T08:44:51.256Z,11.25
2017-09-30T08:46:01.531Z,11.34
2017-09-30T08:47:11.481Z,11.34
2017-09-30T08:48:21.432Z,11.35
2017-09-30T08:49:31.391Z,11.38
2017-09-30T08:50:41.661Z,11.37
2017-09-30T08:51:51.938Z,11.44
2017-09-30T08:53:02.207Z,11.4
2017-09-30T08:54:12.156Z,11.34
2017-09-30T08:55:21.789Z,11.37
2017-09-30T08:56:31.741Z,11.43
2017-09-30T08:57:42.008Z,11.48
2017-09-30T08:58:51.634Z,11.4
2017-09-30T09:00:01.587Z,11.52
2017-09-30T09:01:11.540Z,11.43
2017-09-30T09:02:21.833Z,11.56
2017-09-30T09:03:32.105Z,11.6
2017-09-30T09:04:42.386Z,11.56
2017-09-30T09:05:52.659Z,11.67
2017-09-30T09:07:02.925Z,11.65
2017-09-30T09:08:12.883Z,11.7
2017-09-30T09:09:22.842Z,11.7
2017-09-30T09:10:32.791Z,11.63
2017-09-30T09:11:43.086Z,11.71
2017-09-30T09:12:53.391Z,11.65
2017-09-30T09:14:03.667Z,11.74
2017-09-30T09:15:13.619Z,11.73
2017-09-30T09:16:23.894Z,11.8
2017-09-30T09:17:34.166Z,11.91
2017-09-30T09:18:43.791Z,11.81
2017-09-30T09:19:54.064Z,11.93
2017-09-30T09:21:04.018Z,11.86
2017-09-30T09:22:14.288Z,11.89
2017-09-30T09:23:24.563Z,11.95
2017-09-30T09:24:34.546Z,11.93
2017-09-30T09:25:44.817Z,11.99
2017-09-30T09:26:54.780Z,12
2017-09-30T09:28:05.055Z,11.96
2017-09-30T09:29:14.781Z,11.96
2017-09-30T09:30:24.416Z,11.89
2017-09-30T09:31:34.385Z,11.96
2017-09-30T09:32:44.662Z,12.07
2017-09-30T09:33:54.292Z,12.03
2017-09-30T09:35:04.242Z,12.08
2017-09-30T09:36:14.192Z,12.02
2017-09-30T09:37:24.141Z,12.02
2017-09-30T09:38:34.099Z,12.1
2017-09-30T09:39:44.046Z,12.14
2017-09-30T09:40:53.989Z,12.15
2017-09-30T09:42:03.941Z,12.2
2017-09-30T09:43:13.893Z,12.18
2017-09-30T09:44:24.172Z,12.2
2017-09-30T09:45:34.449Z,12.17
2017-09-30T09:46:44.405Z,12.18
2017-09-30T09:47:54.366Z,12.2
2017-09-30T09:49:04.642Z,12.14
2017-09-30T09:50:14.916Z,12.21
2017-09-30T09:51:25.200Z,12.21
2017-09-30T09:52:35.470Z,12.29
2017-09-30T09:53:45.421Z,12.39
2017-09-30T09:54:55.714Z,12.35
2017-09-30T09:56:05.675Z,12.4
2017-09-30T09:57:15.947Z,12.35
2017-09-30T09:58:25.898Z,12.36
2017-09-30T09:59:36.173Z,12.39
2017-09-30T10:00:46.475Z,12.39
2017-09-30T10:01:56.437Z,12.36
2017-09-30T10:03:06.070Z,12.39
2017-09-30T10:04:16.032Z,12.4
2017-09-30T10:05:26.309Z,12.45
2017-09-30T10:06:35.940Z,12.45
2017-09-30T10:07:45.890Z,12.48
2017-09-30T10:08:55.840Z,12.45
2017-09-30T10:10:05.806Z,12.39
2017-09-30T10:11:15.439Z,12.35
2017-09-30T10:12:25.717Z,12.37
2017-09-30T10:13:35.665Z,12.37
2017-09-30T10:14:45.301Z,12.36
2017-09-30T10:15:55.253Z,12.33
2017-09-30T10:17:05.525Z,12.44
2017-09-30T10:18:15.481Z,12.43
2017-09-30T10:19:25.432Z,12.4
2017-09-30T10:20:35.382Z,12.37
2017-09-30T10:21:45.328Z,12.33
2017-09-30T10:22:55.611Z,12.35
2017-09-30T10:24:05.908Z,12.37
2017-09-30T10:25:15.855Z,12.37
2017-09-30T10:26:25.815Z,12.37
2017-09-30T10:27:36.088Z,12.28
2017-09-30T10:28:46.366Z,12.36
2017-09-30T10:29:55.992Z,12.4
2017-09-30T10:31:06.272Z,12.25
2017-09-30T10:32:16.233Z,12.39
2017-09-30T10:33:26.189Z,12.25
2017-09-30T10:34:35.820Z,12.28
2017-09-30T10:35:45.461Z,12.26
2017-09-30T10:36:55.414Z,12.26
2017-09-30T10:38:05.369Z,12.23
2017-09-30T10:39:14.356Z,12.25
2017-09-30T10:40:24.059Z,12.21
2017-09-30T10:41:34.423Z,12.12
2017-09-30T10:42:44.376Z,12.12
2017-09-30T10:43:53.683Z,12.08
2017-09-30T10:45:03.632Z,12.12
2017-09-30T10:46:13.905Z,12.05
2017-09-30T10:47:23.857Z,12
2017-09-30T10:48:33.808Z,11.95
2017-09-30T10:49:43.439Z,12
2017-09-30T10:50:53.709Z,12
2017-09-30T10:52:03.657Z,12.03
2017-09-30T10:53:13.927Z,12.03
2017-09-30T10:54:23.880Z,11.99
2017-09-30T10:55:34.150Z,12
2017-09-30T10:56:44.426Z,12.03
2017-09-30T10:57:54.380Z,12
2017-09-30T10:59:04.013Z,11.99
2017-09-30T11:00:13.969Z,11.97
2017-09-30T11:01:23.917Z,12.12
2017-09-30T11:02:34.199Z,12.12
2017-09-30T11:03:44.153Z,12.17
2017-09-30T11:04:54.421Z,12.21
2017-09-30T11:06:04.378Z,12.25
2017-09-30T11:07:14.656Z,12.18
2017-09-30T11:08:24.608Z,12.14
2017-09-30T11:09:34.879Z,12.23
2017-09-30T11:10:45.160Z,12.29
2017-09-30T11:11:54.468Z,12.29
2017-09-30T11:13:04.740Z,12.3
2017-09-30T11:14:14.368Z,12.2
2017-09-30T11:15:24.645Z,12.25
2017-09-30T11:16:34.920Z,12.32
2017-09-30T11:17:45.189Z,12.39
2017-09-30T11:18:55.137Z,12.35
2017-09-30T11:20:05.091Z,12.36
2017-09-30T11:21:14.724Z,12.33
2017-09-30T11:22:24.994Z,12.35
2017-09-30T11:23:34.629Z,12.37
2017-09-30T11:24:44.906Z,12.36
2017-09-30T11:25:55.179Z,12.39
2017-09-30T11:27:04.492Z,12.36
2017-09-30T11:28:14.443Z,12.35
2017-09-30T11:29:24.385Z,12.4
2017-09-30T11:30:34.664Z,12.35
2017-09-30T11:31:44.952Z,12.37
2017-09-30T11:32:55.235Z,12.35
2017-09-30T11:34:05.193Z,12.44
2017-09-30T11:35:14.821Z,12.45
2017-09-30T11:36:24.781Z,12.5
2017-09-30T11:37:35.051Z,12.43
2017-09-30T11:38:45.334Z,12.47
2017-09-30T11:39:55.292Z,12.54
2017-09-30T11:41:05.567Z,12.51
2017-09-30T11:42:15.197Z,12.47
2017-09-30T11:43:25.474Z,12.48
2017-09-30T11:44:35.424Z,12.58
2017-09-30T11:45:45.696Z,12.63
2017-09-30T11:46:55.328Z,12.63
2017-09-30T11:48:05.286Z,12.73
2017-09-30T11:49:15.242Z,12.69
2017-09-30T11:50:25.200Z,12.63
2017-09-30T11:51:35.477Z,12.68
2017-09-30T11:52:45.750Z,12.62
2017-09-30T11:53:56.019Z,12.78
2017-09-30T11:55:05.329Z,12.76
2017-09-30T11:56:15.609Z,12.75
2017-09-30T11:57:25.571Z,12.72
2017-09-30T11:58:35.846Z,12.76
2017-09-30T11:59:45.799Z,12.8
2017-09-30T12:00:55.425Z,12.75
2017-09-30T12:02:05.696Z,12.8
2017-09-30T12:03:15.645Z,12.75
2017-09-30T12:04:25.597Z,12.81
2017-09-30T12:05:35.871Z,12.69
2017-09-30T12:06:45.817Z,12.78
2017-09-30T12:07:55.441Z,12.73
2017-09-30T12:09:04.747Z,12.76
2017-09-30T12:10:14.706Z,12.81
2017-09-30T12:11:24.978Z,12.78
2017-09-30T12:12:34.927Z,12.81
2017-09-30T12:13:44.558Z,12.76
2017-09-30T12:14:54.830Z,12.88
2017-09-30T12:16:04.779Z,12.86
2017-09-30T12:17:14.729Z,12.88
2017-09-30T12:18:24.681Z,12.84
2017-09-30T12:19:34.962Z,12.94
2017-09-30T12:20:45.242Z,12.94
2017-09-30T12:21:55.196Z,13.01
2017-09-30T12:23:05.152Z,13.06
2017-09-30T12:24:15.103Z,13.05
2017-09-30T12:25:25.384Z,13.08
2017-09-30T12:26:35.350Z,13.06
2017-09-30T12:27:45.309Z,13.06
2017-09-30T12:28:55.261Z,13.01
2017-09-30T12:30:05.213Z,12.99
2017-09-30T12:31:14.846Z,12.93
2017-09-30T12:32:24.478Z,12.94
2017-09-30T12:33:34.432Z,13.01
2017-09-30T12:34:44.712Z,13.01
2017-09-30T12:35:56.694Z,13.01
2017-09-30T12:37:06.975Z,12.95
2017-09-30T12:38:17.254Z,12.98
2017-09-30T12:39:27.538Z,13.02
2017-09-30T12:40:37.494Z,12.95
2017-09-30T12:41:47.127Z,12.94
2017-09-30T12:42:56.760Z,12.94
2017-09-30T12:44:06.716Z,12.99
2017-09-30T12:45:16.987Z,12.94
2017-09-30T12:46:27.263Z,12.94
2017-09-30T12:47:37.216Z,12.99
2017-09-30T12:48:47.180Z,12.99
2017-09-30T12:49:57.457Z,12.91
2017-09-30T12:51:07.741Z,12.93
2017-09-30T12:52:17.693Z,13.02
2017-09-30T12:53:27.965Z,12.98
2017-09-30T12:54:38.233Z,12.99
2017-09-30T12:55:47.867Z,12.93
2017-09-30T12:56:57.821Z,12.93
2017-09-30T12:58:08.094Z,13.01
2017-09-30T12:59:18.370Z,12.87
2017-09-30T13:00:28.321Z,12.94
2017-09-30T13:01:38.600Z,12.87
2017-09-30T13:02:48.583Z,12.84
2017-09-30T13:03:58.865Z,12.88
2017-09-30T13:05:08.820Z,12.88
2017-09-30T13:06:18.773Z,12.87
2017-09-30T13:07:28.723Z,12.95
2017-09-30T13:08:38.996Z,12.99
2017-09-30T13:09:49.273Z,12.95
2017-09-30T13:10:59.224Z,12.98
2017-09-30T13:12:08.855Z,12.93
2017-09-30T13:13:18.818Z,12.87
2017-09-30T13:14:28.449Z,12.87
2017-09-30T13:15:38.724Z,12.84
2017-09-30T13:16:48.673Z,12.86
2017-09-30T13:17:58.309Z,12.93
2017-09-30T13:19:07.945Z,12.99
2017-09-30T13:20:18.215Z,12.93
2017-09-30T13:21:28.169Z,13.03
2017-09-30T13:22:38.122Z,13.09
2017-09-30T13:23:48.074Z,13.13
2017-09-30T13:24:58.352Z,13.11
2017-09-30T13:26:08.309Z,13.12
2017-09-30T13:27:17.938Z,13.16
2017-09-30T13:28:27.565Z,13.24
2017-09-30T13:29:37.840Z,13.2
2017-09-30T13:30:48.115Z,13.2
2017-09-30T13:31:58.065Z,13.27
2017-09-30T13:33:08.342Z,13.19
2017-09-30T13:34:17.976Z,13.17
2017-09-30T13:35:28.250Z,13.36
2017-09-30T13:36:38.209Z,13.28
2017-09-30T13:37:48.158Z,13.28
2017-09-30T13:38:58.430Z,13.26
2017-09-30T13:40:08.707Z,13.24
2017-09-30T13:41:18.660Z,13.42
2017-09-30T13:42:28.938Z,13.31
2017-09-30T13:43:39.211Z,13.31
2017-09-30T13:44:49.479Z,13.4
2017-09-30T13:45:59.107Z,13.45
2017-09-30T13:47:09.392Z,13.5
2017-09-30T13:48:19.669Z,13.57
2017-09-30T13:49:29.620Z,13.52
2017-09-30T13:50:39.892Z,13.62
2017-09-30T13:51:52.173Z,13.54
2017-09-30T13:53:02.130Z,13.55
2017-09-30T13:54:12.408Z,13.57
2017-09-30T13:55:22.041Z,13.64
2017-09-30T13:56:32.323Z,13.6
2017-09-30T13:57:41.952Z,13.62
2017-09-30T13:58:51.904Z,13.58
2017-09-30T14:00:01.859Z,13.65
2017-09-30T14:01:12.135Z,13.67
2017-09-30T14:02:22.090Z,13.62
2017-09-30T14:03:32.043Z,13.64
2017-09-30T14:04:42.318Z,13.61
2017-09-30T14:05:51.952Z,13.52
2017-09-30T14:07:01.904Z,13.54
2017-09-30T14:08:11.858Z,13.61
2017-09-30T14:09:22.129Z,13.62
2017-09-30T14:10:32.402Z,13.58
2017-09-30T14:11:42.676Z,13.68
2017-09-30T14:12:52.958Z,13.67
2017-09-30T14:14:03.388Z,13.64
2017-09-30T14:15:13.387Z,13.65
2017-09-30T14:16:23.667Z,13.67
2017-09-30T14:17:33.618Z,13.75
2017-09-30T14:18:43.901Z,13.73
2017-09-30T14:19:54.178Z,13.73
2017-09-30T14:21:04.142Z,13.65
2017-09-30T14:22:14.417Z,13.65
2017-09-30T14:23:24.692Z,13.64
2017-09-30T14:24:34.641Z,13.55
2017-09-30T14:25:44.596Z,13.54
2017-09-30T14:26:54.881Z,13.54
2017-09-30T14:28:05.153Z,13.54
2017-09-30T14:29:14.786Z,13.58
2017-09-30T14:30:24.744Z,13.43
2017-09-30T14:31:35.054Z,13.39
2017-09-30T14:32:45.327Z,13.36
2017-09-30T14:33:54.964Z,13.27
2017-09-30T14:35:05.236Z,13.33
2017-09-30T14:36:15.513Z,13.27
2017-09-30T14:37:25.464Z,13.36
2017-09-30T14:38:35.422Z,13.24
2017-09-30T14:39:45.704Z,13.26
2017-09-30T14:40:55.979Z,13.24
2017-09-30T14:42:06.264Z,13.16
2017-09-30T14:43:16.225Z,13.17
2017-09-30T14:44:26.179Z,13.12
2017-09-30T14:45:36.452Z,13.08
2017-09-30T14:46:46.727Z,13.03
2017-09-30T14:47:56.677Z,12.98
2017-09-30T14:49:06.957Z,13.02
2017-09-30T14:50:16.263Z,13.01
2017-09-30T14:51:25.891Z,12.93
2017-09-30T14:52:36.170Z,12.83
2017-09-30T14:53:46.450Z,12.87
2017-09-30T14:54:56.722Z,12.76
2017-09-30T14:56:07.003Z,12.81
2017-09-30T14:57:16.311Z,12.81
2017-09-30T14:58:26.266Z,12.8
2017-09-30T14:59:35.893Z,12.81
2017-09-30T15:00:45.843Z,12.81
2017-09-30T15:01:56.112Z,12.8
2017-09-30T15:03:06.069Z,12.84
2017-09-30T15:04:15.375Z,12.81
2017-09-30T15:05:25.649Z,12.84